x

Buoy A01 - Mass. Bay/stellwagen (44029) Wave Buoy

6:04 - Sat 10th Dec 2016 All times are EST. -5 hours from GMT.

  • Sig Wave height 2.6ft
  • Peak Period 4s
  • Wind
    25mph, 29mph gusts
  • Sea Temp 48°f
  • Luft Temp 25°f
  • Sea Pressure 1023.3mb
  • Buoy A01 - Mass. Bay/stellwagen
  • Buoy A01 - Mass. Bay/stellwagen

More Historic Weather Station data

Upgrade to MSW Pro to gain access to the past 30 days of data for over 8000 Wavebouys and Weather Stations around the globe.

Join Pro

Comparision Forecast

View Surf forecast
   
Sa 12/10 6:04 2.5ft 4s 25 29 mph 1023.3mb 48f 25f
5:04 3ft 3s 22 29 mph 1022.7mb 48f 26f
4:04 3ft 3s 22 27 mph 1022.4mb 47f 26f
3:04 3ft 3s 22 29 mph 1021.9mb 48f 27f
2:04 2.5ft 4s 25 31 mph 1021.6mb 48f 27f
1:04 3.5ft 3s 22 29 mph 1021.3mb 48f 28f
12:04 3ft 3s 22 27 mph 1021.1mb 48f 28f
Fr 12/09 11:04  -   -  22 27 mph 1020.9mb 48f 29f
10:04 3ft 3s 25 34 mph 1020.3mb 48f 29f
9:04 3ft 3s 25 29 mph 1019.7mb 48f 31f
8:04 3.5ft 4s 22 29 mph 1019.2mb 48f 31f
7:04 3.5ft 3s 34 45 mph 1018.4mb 47f 32f
6:04 3ft 3s 22 27 mph 1017.5mb 47f 33f
5:04 3.5ft 4s 25 29 mph 1016.3mb 47f 34f
4:04 4ft 3s 22 27 mph 1015.3mb 47f 35f
3:04 4ft 4s 20 27 mph 1014.3mb 47f 35f
2:04 2.5ft 4s 20 27 mph 1013.6mb 49f 36f
1:04 3ft 3s 22 27 mph 1013mb 48f 35f
12:04 3.5ft 4s 25 31 mph 1012.9mb 49f 35f
11:04 3ft 4s 20 25 mph 1013.3mb 49f 35f
10:04 3.5ft 4s 25 31 mph 1013mb 49f 35f
9:04 3.5ft 4s 20 27 mph 1012.6mb 48f 35f
8:04 4.5ft 4s 22 27 mph 1011.9mb 48f 35f
7:04  -   -  25 31 mph 1011mb 48f 36f
6:04 4.5ft 4s 25 34 mph 1010.1mb 47f 36f
5:04 4.5ft 5s 36 43 mph 1009.4mb 47f 37f
4:04 2.5ft 5s 34 40 mph 1009.3mb 48f 37f
3:04 3.5ft 4s 27 34 mph 1009.3mb 49f 37f
2:04 4.5ft 4s 25 31 mph 1009.3mb 49f 37f
1:04 4.5ft 4s 25 29 mph 1009mb 49f 37f
12:04 4.5ft 4s 25 31 mph 1008.7mb 49f 38f
Do 12/08 11:04 3.5ft 4s 27 31 mph 1008.9mb 48f 38f
10:04 4.5ft 4s 25 29 mph 1008.8mb 48f 39f
9:04 4.5ft 4s 25 29 mph 1008.5mb 48f 40f
8:04 4.5ft 4s 27 31 mph 1008.3mb 48f 41f
7:04 4ft 4s 25 29 mph 1008.3mb 48f 42f
6:04  -   -  25 29 mph 1008mb 48f 43f
5:04 3.5ft 3s 18 22 mph 1008mb 48f 43f
4:04 2ft 6s 20 25 mph 1007.8mb 48f 43f
3:04 2.5ft 3s 18 22 mph 1007.7mb 48f 44f
2:04 4.5ft 15s 16 18 mph 1007.5mb 48f 44f
1:04 2ft 7s 11 16 mph 1008.2mb 48f 43f
12:04 1.6ft 10s 13 16 mph 1009.4mb 48f 43f
11:04 1.6ft 11s 13 16 mph 1010.8mb 48f 42f
10:04 2ft 11s 11 13 mph 1012.1mb 48f 43f
9:04 2ft 8s 11 13 mph 1012.6mb 48f 43f
8:04 2ft 8s 11 13 mph 1012.6mb 48f 42f
7:04 2.5ft 9s 11 16 mph 1012.6mb 48f 42f
6:04 2.5ft 3s 13 16 mph 1012.9mb 48f 42f
5:04 2.5ft 3s 13 16 mph 1013.2mb 48f 42f
4:04 2ft 6s 16 18 mph 1013.2mb 48f 42f
3:04 2ft 5s 18 20 mph 1013.5mb 48f 43f
2:04 2ft 6s 13 18 mph 1013.8mb 48f 42f
1:04 2.5ft 9s 16 18 mph 1014.2mb 48f 42f
12:04 2ft 8s 11 13 mph 1014mb 48f 42f
Mi 12/07 11:04 2.5ft 3s 11 13 mph 1014.5mb 48f 42f
10:04 2.5ft 8s 13 16 mph 1015mb 48f 43f
9:04 2.5ft 8s 11 13 mph 1015.2mb 48f 44f
8:04 2ft 9s 13 18 mph 1015.1mb 48f 43f
7:04 2.5ft 9s 11 13 mph 1015.4mb 48f 43f
6:04 1.6ft 9s 7 9 mph 1015mb 48f 42f
5:04 1.3ft 9s 9 11 mph 1014.9mb 48f 43f
4:04 1.3ft 10s 9 13 mph 1014.2mb 48f 42f
3:04 1.3ft 4s 4 7 mph 1013.5mb 48f 42f
2:04 1.6ft 4s 7
mph
1013.3mb 49f 42f
1:04 2ft 4s 7 9 mph 1013.7mb 49f 41f
12:04 2.5ft 4s 9 11 mph 1014.1mb 49f 41f
11:04 2.5ft 4s 11 13 mph 1014.9mb 49f 40f
10:04 2.5ft 4s 11 13 mph 1015mb 49f 40f
9:04 2.5ft 9s 2 4 mph 1014.9mb 49f 42f
8:04 2.5ft 10s 9 11 mph 1014.4mb 49f 42f
7:04 2.5ft 4s 13 16 mph 1013.4mb 49f 42f
6:04 2.5ft 4s 13 18 mph 1013.2mb 49f 42f
5:04 2.5ft 10s 16 18 mph 1012.7mb 49f 43f
4:04 2ft 3s 18 20 mph 1012.6mb 49f 42f
3:04 2.5ft 10s 13 18 mph 1013.5mb 49f 42f
2:04 2ft 5s 13 16 mph 1013.9mb 49f 42f
1:04  -   -  13 18 mph 1013.8mb 48f 42f
12:04 2ft 5s 13 16 mph 1014.6mb 48f 42f
Di 12/06 11:04 2.5ft 5s 11 16 mph 1015.5mb 48f 42f
10:04 2ft 10s 11 13 mph 1016mb 49f 42f
9:04 2.5ft 11s 11 13 mph 1016.5mb 49f 42f
7:04 2.5ft 6s 13 16 mph 1016.2mb 49f 42f
6:04 1.3ft 11s 13 16 mph 1016.1mb 49f 43f
5:04 1.6ft 11s 7 9 mph 1016mb 49f 42f
4:04 1.3ft 10s 7 9 mph 1016.8mb 49f 41f
3:04 1.3ft 8s 7 9 mph 1017.1mb 49f 41f
2:04 1.6ft 10s 9 11 mph 1017.6mb 49f 42f
1:04 2ft 10s 9 11 mph 1017.7mb 48f 42f